Time;durP1;ratioP1;P1;durP2;ratioP2;P2;SDS_P1;SDS_P2;PMS_P1;PMS_P2;Temp;Humidity;BMP_temperature;BMP_pressure;BME280_temperature;BME280_humidity;BME280_pressure;Samples;Min_cycle;Max_cycle;Signal;HPM_P1;HPM_P2
2023/03/01 00:00:54;;;;;;;3.58;2.00;;;19.40;52.70;;;;;;5022839;28;20049;-66
2023/03/01 00:03:19;;;;;;;4.00;1.70;;;19.40;52.60;;;;;;5014071;28;20045;-66
2023/03/01 00:05:46;;;;;;;3.40;1.88;;;19.40;52.70;;;;;;5028051;28;20042;-66
2023/03/01 00:08:11;;;;;;;3.50;1.70;;;19.40;52.60;;;;;;5015228;28;20116;-66
2023/03/01 00:10:37;;;;;;;3.97;2.00;;;19.30;52.60;;;;;;5020562;28;20099;-66
2023/03/01 00:13:04;;;;;;;3.65;1.85;;;19.40;52.70;;;;;;5014349;28;20042;-66
2023/03/01 00:15:31;;;;;;;3.47;1.88;;;19.40;52.60;;;;;;5026168;28;20045;-66
2023/03/01 00:17:56;;;;;;;4.13;1.92;;;19.30;52.60;;;;;;5021530;28;20073;-66
2023/03/01 00:20:22;;;;;;;4.78;1.65;;;19.30;52.50;;;;;;5022835;28;20065;-66
2023/03/01 00:22:48;;;;;;;3.58;1.80;;;19.30;52.50;;;;;;5014557;28;20088;-66
2023/03/01 00:25:13;;;;;;;4.63;1.85;;;19.30;52.50;;;;;;5023855;28;20046;-66
2023/03/01 00:27:39;;;;;;;2.80;1.65;;;19.30;52.50;;;;;;5019850;28;20128;-65
2023/03/01 00:30:05;;;;;;;3.30;1.83;;;19.20;52.50;;;;;;5020955;28;20041;-66
2023/03/01 00:32:31;;;;;;;3.97;1.90;;;19.30;52.50;;;;;;5013244;28;20077;-66
2023/03/01 00:34:56;;;;;;;4.78;1.85;;;19.20;52.40;;;;;;5021609;28;20073;-66
2023/03/01 00:37:22;;;;;;;4.45;1.77;;;19.20;52.40;;;;;;5023209;28;20481;-66
2023/03/01 00:39:48;;;;;;;3.95;1.77;;;19.20;52.40;;;;;;5018726;28;20038;-66
2023/03/01 00:42:14;;;;;;;4.35;1.73;;;19.20;52.40;;;;;;5015737;28;20050;-66
2023/03/01 00:44:40;;;;;;;3.78;1.95;;;19.20;52.40;;;;;;5017158;28;20073;-66
2023/03/01 00:47:05;;;;;;;3.78;1.77;;;19.20;52.40;;;;;;5024623;28;20088;-66
2023/03/01 00:49:31;;;;;;;3.78;1.80;;;19.20;52.40;;;;;;5016784;28;20120;-66
2023/03/01 00:51:56;;;;;;;3.58;1.85;;;19.20;52.40;;;;;;5017337;28;20038;-66
2023/03/01 00:54:22;;;;;;;2.88;1.70;;;19.20;52.40;;;;;;5014775;28;20103;-65
2023/03/01 00:56:47;;;;;;;2.78;1.70;;;19.20;52.40;;;;;;5036628;28;20030;-66
2023/03/01 00:59:13;;;;;;;3.15;1.70;;;19.10;52.40;;;;;;5012980;28;20452;-66
2023/03/01 01:01:38;;;;;;;4.07;1.80;;;19.10;52.40;;;;;;5020260;28;20045;-65
2023/03/01 01:04:06;;;;;;;3.22;1.65;;;19.10;52.40;;;;;;5015358;28;20046;-66
2023/03/01 01:06:42;;;;;;;2.67;1.83;;;19.10;52.40;;;;;;5015053;28;20050;-66
2023/03/01 01:09:08;;;;;;;3.50;1.90;;;19.10;52.30;;;;;;5010752;28;20347;-66
2023/03/01 01:11:35;;;;;;;3.20;1.70;;;19.10;52.40;;;;;;5025052;28;20081;-66
2023/03/01 01:14:00;;;;;;;3.53;1.73;;;19.10;52.40;;;;;;5012946;28;20128;-65
2023/03/01 01:16:27;;;;;;;3.25;1.63;;;19.10;52.40;;;;;;5016821;28;20116;-66
2023/03/01 01:18:52;;;;;;;4.28;1.90;;;19.10;52.40;;;;;;5013365;28;20050;-66
2023/03/01 01:21:19;;;;;;;3.60;1.75;;;19.10;52.30;;;;;;5023275;28;20046;-65
2023/03/01 01:23:45;;;;;;;4.20;2.28;;;19.00;52.20;;;;;;5013068;28;20096;-65
2023/03/01 01:26:15;;;;;;;3.47;1.75;;;19.00;52.20;;;;;;5015871;28;20513;-65
2023/03/01 01:28:41;;;;;;;2.60;1.60;;;19.00;52.20;;;;;;5012577;28;20050;-66
2023/03/01 01:31:07;;;;;;;2.88;1.60;;;19.00;52.20;;;;;;5024714;28;20110;-65
2023/03/01 01:33:32;;;;;;;3.05;1.77;;;19.00;52.20;;;;;;5013255;28;20041;-66
2023/03/01 01:35:58;;;;;;;2.95;1.90;;;19.00;52.20;;;;;;5016126;28;20093;-66
2023/03/01 01:38:24;;;;;;;3.25;1.73;;;19.00;52.20;;;;;;5011625;28;20042;-65
2023/03/01 01:40:50;;;;;;;3.10;1.80;;;19.00;52.20;;;;;;5012886;28;20040;-66
2023/03/01 01:43:29;;;;;;;3.67;1.63;;;19.00;52.20;;;;;;5012329;28;20510;-65
2023/03/01 01:45:56;;;;;;;3.72;1.85;;;18.90;52.10;;;;;;5016416;28;20042;-66
2023/03/01 01:48:23;;;;;;;4.03;1.63;;;18.90;52.10;;;;;;4979356;28;20042;-65
2023/03/01 01:50:55;;;;;;;3.70;1.88;;;18.90;52.10;;;;;;5005096;28;20053;-65
2023/03/01 01:53:20;;;;;;;3.10;1.60;;;18.90;52.10;;;;;;5012948;28;20046;-65
2023/03/01 01:55:48;;;;;;;3.10;1.98;;;18.90;52.00;;;;;;4997771;28;20404;-66
2023/03/01 01:58:17;;;;;;;3.80;1.77;;;18.90;52.00;;;;;;4995176;28;20056;-66
2023/03/01 02:00:43;;;;;;;3.05;1.65;;;18.90;52.00;;;;;;4987855;28;20128;-66
2023/03/01 02:03:11;;;;;;;3.83;1.70;;;18.90;52.00;;;;;;5014027;28;20138;-66
2023/03/01 02:05:56;;;;;;;3.95;2.00;;;18.90;52.00;;;;;;4998745;28;20044;-66
2023/03/01 02:08:25;;;;;;;3.03;1.67;;;18.90;52.00;;;;;;4995395;28;20096;-66
2023/03/01 02:10:51;;;;;;;2.65;1.45;;;18.90;51.90;;;;;;5021957;28;20037;-66
2023/03/01 02:13:17;;;;;;;3.78;1.60;;;18.90;51.90;;;;;;5013047;28;20041;-65
2023/03/01 02:15:43;;;;;;;3.65;1.70;;;18.90;52.00;;;;;;5014404;28;20042;-65
2023/03/01 02:18:09;;;;;;;3.67;1.83;;;18.90;52.00;;;;;;5010537;28;20108;-65
2023/03/01 02:20:45;;;;;;;2.47;1.40;;;18.90;52.00;;;;;;5002012;28;20048;-66
2023/03/01 02:23:10;;;;;;;2.42;1.58;;;18.90;51.90;;;;;;5014491;28;20115;-65
2023/03/01 02:25:40;;;;;;;3.17;1.75;;;18.90;51.90;;;;;;4997325;28;20038;-65
2023/03/01 02:28:15;;;;;;;3.17;1.88;;;18.90;51.80;;;;;;5011503;28;20042;-65
2023/03/01 02:31:41;;;;;;;2.83;1.52;;;18.90;51.80;;;;;;5018399;28;20052;-66
2023/03/01 02:33:27;;;;;;;3.00;1.73;;;18.90;51.80;;;;;;5011853;28;20054;-66
2023/03/01 02:35:54;;;;;;;2.70;1.50;;;18.90;51.80;;;;;;5025510;28;20038;-65
2023/03/01 02:38:19;;;;;;;3.20;1.80;;;18.90;51.80;;;;;;4994365;28;20057;-66
2023/03/01 02:40:45;;;;;;;3.28;1.55;;;18.90;51.80;;;;;;5001926;28;20120;-65
2023/03/01 02:43:10;;;;;;;3.60;1.70;;;18.90;51.80;;;;;;5016121;28;20065;-66
2023/03/01 02:45:36;;;;;;;2.78;1.63;;;18.90;51.70;;;;;;4997091;28;20068;-65
2023/03/01 02:48:01;;;;;;;3.05;1.90;;;18.90;51.70;;;;;;5010834;28;20386;-66
2023/03/01 02:50:30;;;;;;;2.08;1.38;;;18.90;51.70;;;;;;5020674;28;20045;-66
2023/03/01 02:53:11;;;;;;;2.65;1.60;;;18.90;51.70;;;;;;5024531;28;20049;-64
2023/03/01 02:55:36;;;;;;;2.80;1.40;;;18.90;51.60;;;;;;4996973;28;20045;-66
2023/03/01 02:58:02;;;;;;;2.88;1.52;;;18.90;51.70;;;;;;5012387;28;20049;-63
2023/03/01 03:00:34;;;;;;;3.45;1.50;;;18.90;51.70;;;;;;5014713;28;20051;-64
2023/03/01 03:03:00;;;;;;;3.03;1.60;;;18.90;51.70;;;;;;5015725;28;20385;-66
2023/03/01 03:05:27;;;;;;;3.70;1.75;;;18.90;51.70;;;;;;5013186;28;20515;-63
2023/03/01 03:07:53;;;;;;;2.33;1.40;;;18.90;51.70;;;;;;5011672;28;20041;-64
2023/03/01 03:10:21;;;;;;;2.95;1.60;;;18.90;51.80;;;;;;5014147;28;20300;-66
2023/03/01 03:12:54;;;;;;;2.63;1.30;;;18.90;51.90;;;;;;5020921;28;20050;-63
2023/03/01 03:15:20;;;;;;;2.92;1.42;;;18.90;51.80;;;;;;5016037;28;20581;-66
2023/03/01 03:17:46;;;;;;;2.45;1.25;;;18.90;51.70;;;;;;5016344;28;20125;-63
2023/03/01 03:20:13;;;;;;;2.47;1.30;;;19.00;51.80;;;;;;5014620;28;20038;-64
2023/03/01 03:22:42;;;;;;;2.53;1.50;;;18.90;51.70;;;;;;5024491;28;20052;-64
2023/03/01 03:25:10;;;;;;;2.75;1.30;;;19.00;51.80;;;;;;5015441;28;20042;-63
2023/03/01 03:27:37;;;;;;;2.85;1.50;;;19.00;51.80;;;;;;5017561;28;20124;-63
2023/03/01 03:30:08;;;;;;;2.45;1.33;;;19.00;51.70;;;;;;5015802;28;20096;-63
2023/03/01 03:32:37;;;;;;;2.75;1.65;;;19.00;51.70;;;;;;5025014;28;20049;-63
2023/03/01 03:35:09;;;;;;;2.38;1.23;;;19.00;51.70;;;;;;5014554;28;20468;-63
2023/03/01 03:40:20;;;;;;;2.25;1.23;;;19.10;51.70;;;;;;5016178;28;20054;-63
2023/03/01 03:42:46;;;;;;;2.22;1.23;;;19.10;51.70;;;;;;5023598;28;20054;-66
2023/03/01 03:45:12;;;;;;;2.60;1.20;;;19.10;51.60;;;;;;5015190;28;20132;-63
2023/03/01 03:47:37;;;;;;;2.13;1.20;;;19.10;51.60;;;;;;5016568;28;20038;-63
2023/03/01 03:50:03;;;;;;;1.92;1.30;;;19.10;51.60;;;;;;5025590;28;20064;-64
2023/03/01 03:52:28;;;;;;;2.65;1.40;;;19.10;51.60;;;;;;5026186;28;20054;-64
2023/03/01 03:54:54;;;;;;;2.05;1.20;;;19.10;51.50;;;;;;5015240;28;20209;-64
2023/03/01 03:57:21;;;;;;;1.95;1.33;;;19.10;51.50;;;;;;5017250;28;20100;-63
2023/03/01 03:59:46;;;;;;;2.53;1.63;;;19.20;52.20;;;;;;5014806;28;20046;-63
2023/03/01 04:02:12;;;;;;;2.83;1.20;;;19.20;51.50;;;;;;5024522;28;20108;-63
2023/03/01 04:04:37;;;;;;;2.78;1.70;;;19.20;51.50;;;;;;5012587;28;20054;-66
2023/03/01 04:07:03;;;;;;;4.00;1.50;;;19.20;51.50;;;;;;5017727;28;20128;-66
2023/03/01 04:09:30;;;;;;;2.88;1.38;;;19.20;52.20;;;;;;5012459;28;20045;-63
2023/03/01 04:11:55;;;;;;;2.70;1.33;;;19.30;51.50;;;;;;5025488;28;20045;-66
2023/03/01 04:14:21;;;;;;;1.90;1.10;;;19.30;51.50;;;;;;5014968;28;20459;-63
2023/03/01 04:16:46;;;;;;;2.55;1.30;;;19.30;51.40;;;;;;5016412;28;20046;-65
2023/03/01 04:19:12;;;;;;;2.08;1.23;;;19.20;51.30;;;;;;5014776;28;20124;-66
2023/03/01 04:21:38;;;;;;;2.15;1.13;;;19.30;51.40;;;;;;5023372;28;20046;-65
2023/03/01 04:24:04;;;;;;;2.13;1.20;;;19.30;51.40;;;;;;5015344;28;20088;-66
2023/03/01 04:26:29;;;;;;;2.30;1.25;;;19.30;51.30;;;;;;5017257;28;20046;-63
2023/03/01 04:28:55;;;;;;;2.00;1.20;;;19.30;51.30;;;;;;5013379;28;20034;-65
2023/03/01 04:31:21;;;;;;;2.85;1.20;;;19.30;51.30;;;;;;5019977;28;20045;-66
2023/03/01 04:33:53;;;;;;;1.85;1.10;;;19.40;51.30;;;;;;5018688;28;20121;-64
2023/03/01 04:36:20;;;;;;;2.17;1.50;;;19.40;51.30;;;;;;5017076;28;20049;-65
2023/03/01 04:38:49;;;;;;;2.70;1.30;;;19.40;51.30;;;;;;5012298;28;20052;-65
2023/03/01 04:41:16;;;;;;;2.45;1.35;;;19.40;51.20;;;;;;5018808;28;20128;-66
2023/03/01 04:43:41;;;;;;;2.50;1.50;;;19.40;51.20;;;;;;5018874;28;20062;-66
2023/03/01 04:46:09;;;;;;;2.75;1.20;;;19.40;51.20;;;;;;5016102;28;20048;-66
2023/03/01 04:48:38;;;;;;;2.00;1.50;;;19.40;51.20;;;;;;5013833;28;20049;-66
2023/03/01 04:51:04;;;;;;;2.67;1.45;;;19.40;51.10;;;;;;5016688;28;20111;-66
2023/03/01 04:53:29;;;;;;;2.17;1.17;;;19.40;51.10;;;;;;5021179;28;20050;-66
2023/03/01 04:55:55;;;;;;;1.90;1.00;;;19.50;51.20;;;;;;5015072;28;20045;-66
2023/03/01 04:58:23;;;;;;;3.10;1.30;;;19.40;51.10;;;;;;5014068;28;20532;-66
2023/03/01 05:00:48;;;;;;;2.00;1.30;;;19.50;51.10;;;;;;5016750;28;20069;-66
2023/03/01 05:03:17;;;;;;;1.42;1.00;;;19.50;51.10;;;;;;5030805;28;20355;-65
2023/03/01 05:05:44;;;;;;;2.47;1.35;;;19.50;51.10;;;;;;5018608;28;20484;-65
2023/03/01 05:08:17;;;;;;;2.17;1.30;;;19.50;51.10;;;;;;5015244;28;20058;-66
2023/03/01 05:10:46;;;;;;;1.85;1.05;;;19.50;51.00;;;;;;5013355;28;20038;-66
2023/03/01 05:13:20;;;;;;;1.60;1.00;;;19.50;51.00;;;;;;5023547;28;20161;-66
2023/03/01 05:15:56;;;;;;;3.40;1.40;;;19.50;51.00;;;;;;5013561;28;20042;-66
2023/03/01 05:18:25;;;;;;;1.95;1.45;;;19.50;51.00;;;;;;5016017;28;20045;-66
2023/03/01 05:20:51;;;;;;;1.38;0.93;;;19.50;51.00;;;;;;5012902;28;20104;-65
2023/03/01 05:23:18;;;;;;;2.75;1.30;;;19.60;51.00;;;;;;5024618;28;20049;-65
2023/03/01 05:25:43;;;;;;;1.88;1.25;;;19.60;50.90;;;;;;5012943;28;20552;-65
2023/03/01 05:28:11;;;;;;;1.65;1.02;;;19.60;50.90;;;;;;5014328;28;20057;-65
2023/03/01 05:30:38;;;;;;;1.77;1.20;;;19.60;50.80;;;;;;5011892;28;20052;-65
2023/03/01 05:33:04;;;;;;;2.97;1.27;;;19.60;50.80;;;;;;5022692;28;20050;-65
2023/03/01 05:35:32;;;;;;;1.92;1.23;;;19.60;50.80;;;;;;5012110;28;20045;-65
2023/03/01 05:37:58;;;;;;;2.40;1.17;;;19.60;50.80;;;;;;5014401;28;20046;-65
2023/03/01 05:40:23;;;;;;;2.47;1.17;;;19.60;50.80;;;;;;5012734;28;20045;-66
2023/03/01 05:42:56;;;;;;;2.25;1.30;;;19.70;50.80;;;;;;5021727;28;20141;-65
2023/03/01 05:45:23;;;;;;;1.98;1.15;;;19.60;50.80;;;;;;5012104;28;20076;-65
2023/03/01 05:47:49;;;;;;;3.17;1.45;;;19.70;50.80;;;;;;5013583;28;20065;-65
2023/03/01 05:50:22;;;;;;;2.65;1.42;;;19.60;50.70;;;;;;5013287;28;20038;-65
2023/03/01 05:52:49;;;;;;;2.38;1.38;;;19.70;50.80;;;;;;5023222;28;20083;-66
2023/03/01 05:55:19;;;;;;;2.25;1.35;;;19.70;50.70;;;;;;5011081;28;20056;-65
2023/03/01 05:57:45;;;;;;;2.15;1.30;;;19.70;50.70;;;;;;5015438;28;20038;-65
2023/03/01 06:00:11;;;;;;;1.98;1.30;;;19.70;50.70;;;;;;5013090;28;20088;-65
2023/03/01 06:02:37;;;;;;;2.10;1.27;;;19.70;50.70;;;;;;5022204;28;20382;-65
2023/03/01 06:05:07;;;;;;;2.47;1.42;;;19.70;50.60;;;;;;5012684;28;20523;-65
2023/03/01 06:07:33;;;;;;;1.80;1.30;;;19.70;50.70;;;;;;5013983;28;20045;-65
2023/03/01 06:09:58;;;;;;;2.10;1.20;;;19.70;50.60;;;;;;5011978;28;20038;-65
2023/03/01 06:12:24;;;;;;;1.80;1.08;;;19.70;50.60;;;;;;5021479;28;20046;-65
2023/03/01 06:14:49;;;;;;;2.13;1.35;;;19.70;50.60;;;;;;5013816;28;20508;-65
2023/03/01 06:17:15;;;;;;;2.65;1.63;;;19.70;50.50;;;;;;5013053;28;20034;-65
2023/03/01 06:19:40;;;;;;;2.35;1.38;;;19.80;50.60;;;;;;5011195;28;20049;-65
2023/03/01 06:22:06;;;;;;;3.70;1.85;;;19.70;50.50;;;;;;5018600;28;20409;-65
2023/03/01 06:24:32;;;;;;;2.25;1.30;;;19.80;50.60;;;;;;5016052;28;20048;-65
2023/03/01 06:26:58;;;;;;;2.55;1.23;;;19.70;50.50;;;;;;5013680;28;20382;-65
2023/03/01 06:29:24;;;;;;;2.00;1.10;;;19.80;50.60;;;;;;5012337;28;20096;-66
2023/03/01 06:31:49;;;;;;;2.13;1.10;;;19.80;50.50;;;;;;5014119;28;20037;-65
2023/03/01 06:34:15;;;;;;;2.25;1.45;;;19.80;50.50;;;;;;5019684;28;20485;-65
2023/03/01 06:36:40;;;;;;;2.05;1.20;;;19.80;50.50;;;;;;5014092;28;20053;-67
2023/03/01 06:39:06;;;;;;;3.13;1.55;;;19.80;50.50;;;;;;5011562;28;20049;-69
2023/03/01 06:41:32;;;;;;;3.47;1.55;;;19.80;50.20;;;;;;5012305;28;20072;-69
2023/03/01 06:43:58;;;;;;;3.72;1.60;;;19.80;50.20;;;;;;5022251;28;20121;-68
2023/03/01 06:46:24;;;;;;;3.15;1.40;;;19.90;50.20;;;;;;5011925;28;20041;-68
2023/03/01 06:48:49;;;;;;;3.20;1.55;;;19.90;50.30;;;;;;5018134;28;20390;-69
2023/03/01 06:51:15;;;;;;;3.40;1.77;;;19.80;50.10;;;;;;5028369;28;20042;-68
2023/03/01 06:53:40;;;;;;;5.30;1.65;;;19.90;50.10;;;;;;5025214;28;20470;-67
2023/03/01 06:56:06;;;;;;;2.90;1.35;;;19.80;50.10;;;;;;5014623;28;20121;-68
2023/03/01 06:58:32;;;;;;;3.50;1.40;;;19.80;50.10;;;;;;5017847;28;20049;-68
2023/03/01 07:01:00;;;;;;;2.25;1.20;;;19.80;50.20;;;;;;5014017;28;20042;-68
2023/03/01 07:03:25;;;;;;;;;;;19.90;50.30;;;;;;5030245;28;20378;-65
2023/03/01 07:05:52;;;;;;;2.95;1.35;;;19.90;50.40;;;;;;5029657;28;20383;-68
2023/03/01 07:08:18;;;;;;;3.85;1.33;;;19.90;50.50;;;;;;5031155;28;20080;-73
2023/03/01 07:10:43;;;;;;;4.18;1.65;;;19.90;50.60;;;;;;5033886;28;20077;-71
2023/03/01 07:13:09;;;;;;;3.42;1.50;;;19.90;50.70;;;;;;5026041;28;20404;-70
2023/03/01 07:15:35;;;;;;;4.18;1.58;;;19.90;50.80;;;;;;5015480;28;20076;-70
2023/03/01 07:18:00;;;;;;;3.42;1.60;;;19.90;50.90;;;;;;5025182;28;20088;-74
2023/03/01 07:20:29;;;;;;;4.43;1.17;;;19.90;51.70;;;;;;5022805;28;20393;-71
2023/03/01 07:22:55;;;;;;;3.30;1.60;;;19.90;50.90;;;;;;5023795;28;20041;-70
2023/03/01 07:25:20;;;;;;;4.63;1.67;;;20.00;51.10;;;;;;5016621;28;20068;-70
2023/03/01 07:27:50;;;;;;;3.72;1.63;;;20.00;51.00;;;;;;5016482;28;20393;-71
2023/03/01 07:30:16;;;;;;;2.83;1.50;;;20.00;51.00;;;;;;5015362;28;20494;-61
2023/03/01 07:32:42;;;;;;;4.00;1.55;;;20.00;50.90;;;;;;5022093;28;20050;-72
2023/03/01 07:35:08;;;;;;;4.18;1.90;;;20.00;50.80;;;;;;5018212;28;20514;-72
2023/03/01 07:37:33;;;;;;;4.38;2.17;;;20.00;50.60;;;;;;5017777;28;20135;-72
2023/03/01 07:39:59;;;;;;;4.40;2.05;;;20.00;50.50;;;;;;5024859;28;20085;-71
2023/03/01 07:42:24;;;;;;;3.05;1.83;;;20.10;50.50;;;;;;5017136;28;20045;-72
2023/03/01 07:44:51;;;;;;;3.28;2.03;;;20.10;50.50;;;;;;5021568;28;20054;-72
2023/03/01 07:47:17;;;;;;;2.97;1.60;;;20.10;50.60;;;;;;5029313;28;20046;-72
2023/03/01 07:49:42;;;;;;;3.85;1.70;;;20.10;50.60;;;;;;5018833;28;20096;-71
2023/03/01 07:52:11;;;;;;;5.25;2.13;;;20.10;50.70;;;;;;5015357;28;20041;-68
2023/03/01 07:54:36;;;;;;;3.67;1.55;;;20.20;50.70;;;;;;5022907;28;20054;-68
2023/03/01 07:57:02;;;;;;;3.72;1.85;;;20.20;50.80;;;;;;5021557;28;20034;-67
2023/03/01 07:59:28;;;;;;;4.28;1.75;;;20.20;51.00;;;;;;5028137;28;20125;-69
2023/03/01 08:01:55;;;;;;;3.17;1.50;;;20.20;51.00;;;;;;5030232;28;20084;-69
2023/03/01 08:04:21;;;;;;;3.05;1.75;;;20.20;51.10;;;;;;5031418;28;20041;-69
2023/03/01 08:06:47;;;;;;;6.03;1.80;;;20.20;51.10;;;;;;5036306;28;20041;-71
2023/03/01 08:09:12;;;;;;;3.80;1.75;;;20.30;51.20;;;;;;5020543;28;20385;-69
2023/03/01 08:11:38;;;;;;;3.83;1.50;;;20.30;51.10;;;;;;5012966;28;20048;-69
2023/03/01 08:14:03;;;;;;;2.72;1.50;;;20.30;51.10;;;;;;5024944;28;20049;-71
2023/03/01 08:16:29;;;;;;;2.83;1.70;;;20.30;51.10;;;;;;5020806;28;20149;-67
2023/03/01 08:18:56;;;;;;;3.38;1.58;;;20.40;51.20;;;;;;5033182;28;20064;-67
2023/03/01 08:21:22;;;;;;;3.10;1.70;;;20.40;51.30;;;;;;5034559;28;20042;-68
2023/03/01 08:23:47;;;;;;;3.05;1.70;;;20.40;51.40;;;;;;5033237;28;20107;-68
2023/03/01 08:26:20;;;;;;;3.47;1.80;;;20.40;51.40;;;;;;5032119;28;20124;-68
2023/03/01 08:28:46;;;;;;;3.97;1.65;;;20.40;52.30;;;;;;5044645;28;20041;-67
2023/03/01 08:31:26;;;;;;;5.00;2.13;;;20.40;51.50;;;;;;5013425;28;20096;-67
2023/03/01 08:33:55;;;;;;;3.08;1.65;;;20.50;51.70;;;;;;5012615;28;20045;-70
2023/03/01 08:36:24;;;;;;;3.67;1.60;;;20.40;51.60;;;;;;5013840;28;20045;-68
2023/03/01 08:38:50;;;;;;;5.22;2.22;;;20.50;51.70;;;;;;5018459;28;20054;-67
2023/03/01 08:41:15;;;;;;;3.80;2.47;;;20.40;51.40;;;;;;5016413;28;20125;-68
2023/03/01 08:43:41;;;;;;;6.70;2.15;;;20.50;51.50;;;;;;5015234;28;20046;-68
2023/03/01 08:46:07;;;;;;;4.97;1.90;;;20.50;51.40;;;;;;5025025;28;20034;-68
2023/03/01 08:48:32;;;;;;;4.35;1.70;;;20.50;51.30;;;;;;5033646;28;20060;-68
2023/03/01 08:51:07;;;;;;;7.03;1.50;;;20.50;51.40;;;;;;5031370;28;20045;-67
2023/03/01 08:53:33;;;;;;;3.90;2.13;;;20.50;51.30;;;;;;5031873;28;20049;-68
2023/03/01 08:56:02;;;;;;;4.22;1.55;;;20.50;51.30;;;;;;5033662;28;20396;-68
2023/03/01 08:58:28;;;;;;;4.10;1.45;;;20.50;51.30;;;;;;5032665;28;20053;-68
2023/03/01 09:00:53;;;;;;;6.25;2.08;;;20.50;51.20;;;;;;5032443;28;20425;-68
2023/03/01 09:03:19;;;;;;;4.20;1.48;;;20.50;51.20;;;;;;5033333;28;20217;-67
2023/03/01 09:05:45;;;;;;;4.25;1.67;;;20.50;51.20;;;;;;5032509;28;20472;-67
2023/03/01 09:08:11;;;;;;;3.13;1.58;;;20.50;51.20;;;;;;5035575;28;20111;-69
2023/03/01 09:10:39;;;;;;;3.10;1.55;;;20.50;51.20;;;;;;5052397;28;20473;-69
2023/03/01 09:13:05;;;;;;;;;;;20.50;51.20;;;;;;5034856;28;20038;-68
2023/03/01 09:15:30;;;;;;;4.45;1.88;;;20.50;51.20;;;;;;5033034;28;19921;-69
2023/03/01 09:17:56;;;;;;;3.70;1.77;;;20.50;51.20;;;;;;5031258;28;20091;-69
2023/03/01 09:20:21;;;;;;;2.83;1.50;;;20.50;51.20;;;;;;5032519;28;20127;-69
2023/03/01 09:22:47;;;;;;;2.33;1.40;;;20.50;51.30;;;;;;5032858;28;20125;-70
2023/03/01 09:25:13;;;;;;;4.72;1.77;;;20.50;51.40;;;;;;5031867;28;20064;-70
2023/03/01 09:27:38;;;;;;;3.10;1.45;;;20.50;51.40;;;;;;5031862;28;20029;-70
2023/03/01 09:30:04;;;;;;;2.75;1.70;;;20.50;51.40;;;;;;5032830;28;20045;-68
2023/03/01 09:32:30;;;;;;;4.95;1.42;;;20.50;51.40;;;;;;5032469;28;20041;-68
2023/03/01 09:35:05;;;;;;;4.20;1.55;;;20.60;51.60;;;;;;5030974;28;20049;-69
2023/03/01 09:37:34;;;;;;;2.13;1.17;;;20.60;51.60;;;;;;5032835;28;20128;-69
2023/03/01 09:40:00;;;;;;;3.45;1.25;;;20.60;51.50;;;;;;5032430;28;20034;-68
2023/03/01 09:42:26;;;;;;;3.08;1.60;;;20.50;51.50;;;;;;5031081;28;20421;-68
2023/03/01 09:44:57;;;;;;;3.03;1.60;;;20.50;51.50;;;;;;5031875;28;20041;-68
2023/03/01 09:47:41;;;;;;;2.70;1.20;;;20.50;51.50;;;;;;5015094;28;20049;-68
2023/03/01 09:50:22;;;;;;;2.90;1.38;;;20.60;51.60;;;;;;5032877;28;20064;-70
2023/03/01 09:53:01;;;;;;;2.22;1.35;;;20.50;51.50;;;;;;4998750;28;20037;-69
2023/03/01 09:55:39;;;;;;;3.38;1.50;;;20.50;51.50;;;;;;5031619;28;20389;-69
2023/03/01 09:58:25;;;;;;;2.55;1.30;;;20.60;51.60;;;;;;5016532;28;20045;-68
2023/03/01 10:00:50;;;;;;;4.88;1.40;;;20.50;51.60;;;;;;5039435;28;20041;-68
2023/03/01 10:03:37;;;;;;;2.50;1.40;;;20.50;51.60;;;;;;5031800;28;20044;-68
2023/03/01 10:06:08;;;;;;;2.75;1.20;;;20.50;51.60;;;;;;5016667;28;20045;-69
2023/03/01 10:08:50;;;;;;;2.38;1.42;;;20.50;51.60;;;;;;5031072;28;20549;-69
2023/03/01 10:11:19;;;;;;;2.85;1.88;;;20.50;51.60;;;;;;5031611;28;20041;-69
2023/03/01 10:13:52;;;;;;;3.10;1.40;;;20.50;51.70;;;;;;5031834;28;20120;-69
2023/03/01 10:16:43;;;;;;;1.98;1.20;;;20.50;51.70;;;;;;5029971;28;20072;-68
2023/03/01 10:19:36;;;;;;;2.58;1.52;;;20.50;51.70;;;;;;5013937;28;20366;-68
2023/03/01 10:22:24;;;;;;;2.35;1.25;;;20.50;51.70;;;;;;5012486;28;20057;-69
2023/03/01 10:24:50;;;;;;;2.13;1.13;;;20.40;51.70;;;;;;5025088;28;20045;-69
2023/03/01 10:27:23;;;;;;;4.40;1.70;;;20.40;51.80;;;;;;5028205;28;20056;-68
2023/03/01 10:30:13;;;;;;;3.45;1.27;;;20.40;51.80;;;;;;5029894;28;20482;-69
2023/03/01 10:32:39;;;;;;;2.85;1.35;;;20.40;51.80;;;;;;5027876;28;20497;-69
2023/03/01 10:35:22;;;;;;;2.40;1.33;;;20.40;51.80;;;;;;5031650;28;20049;-70
2023/03/01 10:38:07;;;;;;;2.63;1.30;;;20.30;51.70;;;;;;5029274;28;20090;-66
2023/03/01 10:40:33;;;;;;;2.45;1.23;;;20.40;51.80;;;;;;5052092;28;20045;-71
2023/03/01 10:43:00;;;;;;;2.63;1.35;;;20.30;51.90;;;;;;5044482;28;20524;-68
2023/03/01 10:45:29;;;;;;;4.10;1.40;;;20.30;51.60;;;;;;5030391;28;20050;-69
2023/03/01 10:48:12;;;;;;;2.58;1.30;;;20.30;51.50;;;;;;5028955;28;20049;-68
2023/03/01 10:50:39;;;;;;;2.92;1.30;;;20.30;51.20;;;;;;5026058;28;20068;-69
2023/03/01 10:53:05;;;;;;;2.30;1.35;;;20.20;51.00;;;;;;5013950;28;20049;-69
2023/03/01 10:55:38;;;;;;;3.13;1.30;;;20.20;50.80;;;;;;5015427;28;20100;-67
2023/03/01 10:58:17;;;;;;;2.83;1.10;;;20.10;50.60;;;;;;5013172;28;20048;-68
2023/03/01 11:00:52;;;;;;;3.67;1.30;;;20.10;50.60;;;;;;5023244;28;20101;-69
2023/03/01 11:03:25;;;;;;;2.03;1.17;;;20.10;50.60;;;;;;5012770;28;20053;-69
2023/03/01 11:06:00;;;;;;;2.70;1.00;;;20.10;50.60;;;;;;5015085;28;20124;-71
2023/03/01 11:08:30;;;;;;;2.50;1.00;;;20.10;50.50;;;;;;5030399;28;20401;-71
2023/03/01 11:11:28;;;;;;;2.75;1.23;;;20.00;50.50;;;;;;5037116;28;20064;-71
2023/03/01 11:14:03;;;;;;;2.80;1.20;;;20.00;50.40;;;;;;5023569;28;20053;-71
2023/03/01 11:16:39;;;;;;;2.38;1.13;;;20.00;50.60;;;;;;5013727;28;20065;-70
2023/03/01 11:19:10;;;;;;;4.07;1.27;;;20.00;50.60;;;;;;5036790;28;20063;-69
2023/03/01 11:21:54;;;;;;;2.15;0.93;;;20.00;50.60;;;;;;5044892;28;20405;-68
2023/03/01 11:24:28;;;;;;;2.20;1.13;;;20.00;50.60;;;;;;4994485;28;20486;-68
2023/03/01 11:26:54;;;;;;;5.03;1.40;;;20.00;50.80;;;;;;5001607;28;20125;-61
2023/03/01 11:29:32;;;;;;;5.97;1.23;;;20.00;50.70;;;;;;5042846;28;20140;-70
2023/03/01 11:32:00;;;;;;;2.90;1.23;;;19.90;51.30;;;;;;4997839;28;20049;-71
2023/03/01 11:34:40;;;;;;;;;;;19.90;50.80;;;;;;5030143;28;20045;-71
2023/03/01 11:37:12;;;;;;;5.32;1.13;;;19.90;50.90;;;;;;5037552;28;19932;-70
2023/03/01 11:39:46;;;;;;;4.68;1.42;;;19.90;50.90;;;;;;5026722;28;20071;-71
2023/03/01 11:42:14;;;;;;;4.47;1.30;;;19.90;50.90;;;;;;5032841;28;20115;-69
2023/03/01 11:44:39;;;;;;;5.53;1.30;;;19.90;51.00;;;;;;5013780;28;20056;-70
2023/03/01 11:47:18;;;;;;;4.55;1.33;;;19.90;51.00;;;;;;5014638;28;20054;-69
2023/03/01 11:49:48;;;;;;;;;;;19.90;51.20;;;;;;5007881;28;20533;-69
2023/03/01 11:52:35;;;;;;;3.47;1.02;;;19.80;51.20;;;;;;5033975;28;19921;-69
2023/03/01 11:55:30;;;;;;;3.35;1.30;;;19.80;51.30;;;;;;5034522;28;20057;-68
2023/03/01 11:58:26;;;;;;;5.15;1.35;;;19.80;51.30;;;;;;5033807;28;20076;-69
2023/03/01 12:01:01;;;;;;;4.18;1.33;;;19.80;51.30;;;;;;5033360;28;20053;-71
2023/03/01 12:03:46;;;;;;;5.03;1.50;;;19.90;51.40;;;;;;5033557;28;20094;-69
2023/03/01 12:06:23;;;;;;;4.13;1.13;;;19.90;51.50;;;;;;5035859;28;20111;-68
2023/03/01 12:09:02;;;;;;;5.50;1.23;;;19.80;51.40;;;;;;5031951;28;20087;-71
2023/03/01 12:11:37;;;;;;;3.38;1.15;;;19.80;51.30;;;;;;5032524;28;20567;-70
2023/03/01 12:14:14;;;;;;;2.88;0.98;;;19.90;51.40;;;;;;5016397;28;20053;-69
2023/03/01 12:17:01;;;;;;;5.00;1.25;;;19.90;51.30;;;;;;5032360;28;20041;-70
2023/03/01 12:19:48;;;;;;;3.67;1.20;;;19.80;51.60;;;;;;5036112;28;20037;-72
2023/03/01 12:22:42;;;;;;;4.55;1.60;;;19.80;51.50;;;;;;5032469;28;20453;-71
2023/03/01 12:25:28;;;;;;;7.28;1.40;;;19.90;51.60;;;;;;5034339;28;20057;-71
2023/03/01 12:28:02;;;;;;;4.72;1.40;;;19.80;51.40;;;;;;5032735;28;20045;-72
2023/03/01 12:30:48;;;;;;;7.85;1.30;;;19.80;51.50;;;;;;5031318;28;20068;-72
2023/03/01 12:33:45;;;;;;;4.60;1.23;;;19.90;51.50;;;;;;5016626;28;20045;-71
2023/03/01 12:36:31;;;;;;;3.25;1.30;;;19.90;51.50;;;;;;5035275;28;20053;-73
2023/03/01 12:39:17;;;;;;;4.57;1.10;;;19.90;51.40;;;;;;5034853;28;20052;-73
2023/03/01 12:41:57;;;;;;;2.55;1.00;;;19.90;51.50;;;;;;5014864;28;20065;-74
2023/03/01 12:44:40;;;;;;;4.25;1.08;;;19.90;51.50;;;;;;5021947;28;20046;-76
2023/03/01 12:47:18;;;;;;;4.10;0.98;;;20.00;51.40;;;;;;5005153;28;20075;-76
2023/03/01 12:50:14;;;;;;;4.40;0.95;;;20.00;52.00;;;;;;5032112;28;20544;-76
2023/03/01 12:52:46;;;;;;;3.67;1.23;;;20.00;51.30;;;;;;5018844;28;20057;-75
2023/03/01 12:55:35;;;;;;;3.08;1.10;;;20.00;51.20;;;;;;5032198;28;20056;-76
2023/03/01 12:58:25;;;;;;;2.40;1.10;;;20.00;51.20;;;;;;5015755;28;20061;-76
2023/03/01 13:01:12;;;;;;;4.28;1.17;;;20.00;51.20;;;;;;5032661;28;20050;-76
2023/03/01 13:04:06;;;;;;;4.93;1.02;;;20.10;51.30;;;;;;5000965;28;20041;-76